createdAt,value
2016-10-04T00:00:33.851Z,184
2016-10-04T00:01:34.321Z,184
2016-10-04T00:02:34.823Z,184
2016-10-04T00:03:35.363Z,184
2016-10-04T00:04:35.817Z,184
2016-10-04T00:05:36.319Z,128
2016-10-04T00:06:36.849Z,128
2016-10-04T00:07:37.355Z,128
2016-10-04T00:08:37.820Z,128
2016-10-04T00:09:38.338Z,128
2016-10-04T00:10:38.965Z,128
2016-10-04T00:11:39.465Z,128
2016-10-04T00:12:39.839Z,128
2016-10-04T00:13:40.462Z,128
2016-10-04T00:14:40.835Z,128
2016-10-04T00:15:41.315Z,126
2016-10-04T00:16:41.821Z,126
2016-10-04T00:17:42.467Z,126
2016-10-04T00:18:42.819Z,126
2016-10-04T00:19:43.330Z,126
2016-10-04T00:20:43.849Z,126
2016-10-04T00:21:44.341Z,126
2016-10-04T00:22:44.839Z,126
2016-10-04T00:23:45.323Z,126
2016-10-04T00:24:45.828Z,126
2016-10-04T00:25:46.478Z,273
2016-10-04T00:26:46.817Z,273
2016-10-04T00:27:47.327Z,273
2016-10-04T00:28:47.845Z,273
2016-10-04T00:29:48.361Z,273
2016-10-04T00:30:48.849Z,273
2016-10-04T00:31:49.328Z,273
2016-10-04T00:32:49.972Z,273
2016-10-04T00:33:50.474Z,273
2016-10-04T00:34:50.867Z,273
2016-10-04T00:35:51.341Z,253
2016-10-04T00:36:51.844Z,253
2016-10-04T00:37:52.478Z,253
2016-10-04T00:38:52.826Z,253
2016-10-04T00:39:53.371Z,253
2016-10-04T00:40:53.826Z,253
2016-10-04T00:41:54.324Z,253
2016-10-04T00:42:54.824Z,253
2016-10-04T00:43:55.354Z,253
2016-10-04T00:44:55.973Z,181
2016-10-04T00:45:56.336Z,181
2016-10-04T00:46:56.822Z,181
2016-10-04T00:47:57.334Z,181
2016-10-04T00:48:57.845Z,181
2016-10-04T00:49:58.320Z,181
2016-10-04T00:50:58.970Z,181
2016-10-04T00:51:59.323Z,181
2016-10-04T00:52:59.840Z,181
2016-10-04T00:54:00.330Z,181
2016-10-04T00:55:00.843Z,246
2016-10-04T00:56:01.311Z,246
2016-10-04T00:57:01.826Z,246
2016-10-04T00:58:02.332Z,246
2016-10-04T00:59:02.840Z,246
2016-10-04T01:00:03.324Z,246
2016-10-04T01:01:03.858Z,246
2016-10-04T01:02:04.475Z,246
2016-10-04T01:03:04.821Z,246
2016-10-04T01:04:05.326Z,246
2016-10-04T01:05:05.882Z,218
2016-10-04T01:06:06.503Z,218
2016-10-04T01:07:06.855Z,218
2016-10-04T01:08:07.337Z,218
2016-10-04T01:09:07.839Z,218
2016-10-04T01:10:08.361Z,218
2016-10-04T01:11:08.981Z,218
2016-10-04T01:12:09.341Z,218
2016-10-04T01:13:09.852Z,218
2016-10-04T01:14:10.333Z,218
2016-10-04T01:15:10.837Z,74
2016-10-04T01:16:11.483Z,74
2016-10-04T01:17:11.847Z,74
2016-10-04T01:18:12.355Z,74
2016-10-04T01:19:12.838Z,74
2016-10-04T01:20:13.342Z,74
2016-10-04T01:21:13.852Z,74
2016-10-04T01:22:14.636Z,74
2016-10-04T01:23:14.840Z,74
2016-10-04T01:24:15.377Z,74
2016-10-04T01:25:15.982Z,223
2016-10-04T01:26:16.376Z,223
2016-10-04T01:27:16.986Z,223
2016-10-04T01:28:17.349Z,223
2016-10-04T01:29:17.983Z,223
2016-10-04T01:30:18.362Z,223
2016-10-04T01:31:18.847Z,223
2016-10-04T01:32:19.485Z,223
2016-10-04T01:33:19.849Z,223
2016-10-04T01:34:20.357Z,223
2016-10-04T01:35:20.998Z,187
2016-10-04T01:36:21.369Z,187
2016-10-04T01:37:21.840Z,187
2016-10-04T01:38:22.384Z,187
2016-10-04T01:39:22.836Z,187
2016-10-04T01:40:23.330Z,187
2016-10-04T01:41:23.843Z,187
2016-10-04T01:42:24.341Z,187
2016-10-04T01:43:24.842Z,187
2016-10-04T01:44:25.501Z,187
2016-10-04T01:45:25.996Z,228
2016-10-04T01:46:26.494Z,228
2016-10-04T01:47:27.007Z,228
2016-10-04T01:48:27.389Z,228
2016-10-04T01:49:27.893Z,228
2016-10-04T01:50:28.512Z,228
2016-10-04T01:51:28.857Z,228
2016-10-04T01:52:29.369Z,228
2016-10-04T01:53:29.876Z,228
2016-10-04T01:54:30.499Z,228
2016-10-04T01:55:30.858Z,156
2016-10-04T01:56:31.496Z,156
2016-10-04T01:57:31.991Z,156
2016-10-04T01:58:32.349Z,156
2016-10-04T01:59:33.000Z,156
2016-10-04T02:00:33.344Z,156
2016-10-04T02:01:33.842Z,156
2016-10-04T02:02:34.367Z,156
2016-10-04T02:03:34.992Z,156
2016-10-04T02:04:35.353Z,156
2016-10-04T02:05:35.993Z,152
2016-10-04T02:06:36.348Z,152
2016-10-04T02:07:36.847Z,152
2016-10-04T02:08:37.422Z,152
2016-10-04T02:09:37.993Z,152
2016-10-04T02:10:38.347Z,152
2016-10-04T02:11:38.848Z,152
2016-10-04T02:12:39.493Z,152
2016-10-04T02:13:39.998Z,152
2016-10-04T02:14:40.383Z,152
2016-10-04T02:15:40.854Z,214
2016-10-04T02:16:41.499Z,214
2016-10-04T02:17:41.989Z,214
2016-10-04T02:18:42.355Z,214
2016-10-04T02:19:42.855Z,214
2016-10-04T02:20:43.378Z,214
2016-10-04T02:21:43.874Z,214
2016-10-04T02:22:44.359Z,214
2016-10-04T02:23:44.889Z,214
2016-10-04T02:24:45.361Z,214
2016-10-04T02:25:45.884Z,263
2016-10-04T02:26:46.516Z,263
2016-10-04T02:27:47.013Z,263
2016-10-04T02:28:47.517Z,263
2016-10-04T02:29:47.902Z,263
2016-10-04T02:30:48.367Z,263
2016-10-04T02:31:48.901Z,263
2016-10-04T02:32:49.360Z,263
2016-10-04T02:33:49.865Z,263
2016-10-04T02:34:50.400Z,263
2016-10-04T02:35:50.885Z,252
2016-10-04T02:36:51.381Z,252
2016-10-04T02:37:51.882Z,252
2016-10-04T02:38:52.508Z,252
2016-10-04T02:39:52.886Z,252
2016-10-04T02:40:53.360Z,252
2016-10-04T02:41:53.856Z,252
2016-10-04T02:42:54.511Z,252
2016-10-04T02:43:55.003Z,252
2016-10-04T02:44:55.370Z,264
2016-10-04T02:45:56.018Z,264
2016-10-04T02:46:56.361Z,264
2016-10-04T02:47:56.889Z,264
2016-10-04T02:48:57.510Z,264
2016-10-04T02:49:58.009Z,264
2016-10-04T02:50:58.356Z,264
2016-10-04T02:51:58.857Z,264
2016-10-04T02:52:59.505Z,264
2016-10-04T02:53:59.906Z,264
2016-10-04T02:55:00.383Z,258
2016-10-04T02:56:00.857Z,258
2016-10-04T02:57:01.507Z,258
2016-10-04T02:58:01.880Z,258
2016-10-04T02:59:02.405Z,258
2016-10-04T03:00:02.893Z,258
2016-10-04T03:01:03.515Z,258
2016-10-04T03:02:04.012Z,258
2016-10-04T03:03:04.391Z,258
2016-10-04T03:04:05.017Z,258
2016-10-04T03:05:05.390Z,266
2016-10-04T03:06:05.879Z,266
2016-10-04T03:07:06.407Z,266
2016-10-04T03:08:06.917Z,266
2016-10-04T03:09:07.373Z,266
2016-10-04T03:10:07.894Z,266
2016-10-04T03:11:08.363Z,266
2016-10-04T03:12:08.860Z,266
2016-10-04T03:13:09.514Z,266
2016-10-04T03:14:10.009Z,266
2016-10-04T03:15:10.521Z,276
2016-10-04T03:16:10.880Z,276
2016-10-04T03:17:11.366Z,276
2016-10-04T03:18:12.009Z,276
2016-10-04T03:19:12.367Z,276
2016-10-04T03:20:12.877Z,276
2016-10-04T03:21:13.528Z,276
2016-10-04T03:22:13.882Z,276
2016-10-04T03:23:14.362Z,276
2016-10-04T03:24:14.884Z,276
2016-10-04T03:25:15.508Z,266
2016-10-04T03:26:15.873Z,266
2016-10-04T03:27:16.377Z,266
2016-10-04T03:28:16.871Z,266
2016-10-04T03:29:17.371Z,266
2016-10-04T03:30:17.862Z,266
2016-10-04T03:31:18.512Z,266
2016-10-04T03:32:18.884Z,266
2016-10-04T03:33:19.513Z,266
2016-10-04T03:34:19.905Z,266
2016-10-04T03:35:20.365Z,263
2016-10-04T03:36:20.908Z,263
2016-10-04T03:37:21.673Z,263
2016-10-04T03:38:21.881Z,263
2016-10-04T03:39:22.537Z,263
2016-10-04T03:40:22.916Z,263
2016-10-04T03:41:23.411Z,263
2016-10-04T03:42:23.887Z,263
2016-10-04T03:43:24.387Z,263
2016-10-04T03:44:24.901Z,263
2016-10-04T03:45:25.383Z,256
2016-10-04T03:46:25.888Z,256
2016-10-04T03:47:26.396Z,256
2016-10-04T03:48:27.030Z,256
2016-10-04T03:49:27.425Z,256
2016-10-04T03:50:27.910Z,256
2016-10-04T03:51:28.532Z,256
2016-10-04T03:52:29.032Z,256
2016-10-04T03:53:29.406Z,256
2016-10-04T03:54:29.884Z,256
2016-10-04T03:55:30.424Z,218
2016-10-04T03:56:31.030Z,218
2016-10-04T03:57:31.530Z,218
2016-10-04T03:58:31.883Z,218
2016-10-04T03:59:32.532Z,218
2016-10-04T04:00:32.891Z,218
2016-10-04T04:01:33.394Z,218
2016-10-04T04:02:33.899Z,218
2016-10-04T04:03:34.387Z,218
2016-10-04T04:04:35.026Z,218
2016-10-04T04:05:35.532Z,174
2016-10-04T04:06:35.907Z,174
2016-10-04T04:07:36.527Z,174
2016-10-04T04:08:37.026Z,174
2016-10-04T04:09:37.382Z,174
2016-10-04T04:11:38.396Z,174
2016-10-04T04:12:39.041Z,174
2016-10-04T04:13:39.534Z,174
2016-10-04T04:14:39.897Z,174
2016-10-04T04:15:40.535Z,141
2016-10-04T04:16:40.947Z,141
2016-10-04T04:17:41.413Z,141
2016-10-04T04:18:41.884Z,141
2016-10-04T04:19:42.400Z,141
2016-10-04T04:20:43.033Z,141
2016-10-04T04:21:43.459Z,141
2016-10-04T04:22:43.915Z,141
2016-10-04T04:23:44.407Z,141
2016-10-04T04:24:44.884Z,141
2016-10-04T04:25:45.386Z,164
2016-10-04T04:26:45.931Z,164
2016-10-04T04:27:46.399Z,164
2016-10-04T04:28:46.925Z,164
2016-10-04T04:29:47.380Z,164
2016-10-04T04:30:48.027Z,164
2016-10-04T04:31:48.534Z,164
2016-10-04T04:32:48.886Z,164
2016-10-04T04:33:49.533Z,164
2016-10-04T04:34:50.025Z,164
2016-10-04T04:35:50.379Z,123
2016-10-04T04:36:51.044Z,123
2016-10-04T04:37:51.378Z,123
2016-10-04T04:38:51.894Z,123
2016-10-04T04:39:52.376Z,123
2016-10-04T04:40:52.888Z,123
2016-10-04T04:41:53.531Z,123
2016-10-04T04:42:54.025Z,123
2016-10-04T04:43:54.529Z,123
2016-10-04T04:44:54.886Z,129
2016-10-04T04:45:55.378Z,129
2016-10-04T04:46:55.897Z,129
2016-10-04T04:47:56.525Z,129
2016-10-04T04:48:56.895Z,129
2016-10-04T04:49:57.429Z,129
2016-10-04T04:50:58.036Z,129
2016-10-04T04:51:58.407Z,129
2016-10-04T04:52:59.036Z,129
2016-10-04T04:53:59.398Z,129
2016-10-04T04:55:00.040Z,155
2016-10-04T04:56:00.405Z,155
2016-10-04T04:57:00.921Z,155
2016-10-04T04:58:01.390Z,155
2016-10-04T04:59:01.896Z,155
2016-10-04T05:00:02.405Z,155
2016-10-04T05:01:02.892Z,155
2016-10-04T05:02:03.395Z,155
2016-10-04T05:03:03.893Z,155
2016-10-04T05:04:04.409Z,155
2016-10-04T05:05:05.049Z,123
2016-10-04T05:06:05.548Z,123
2016-10-04T05:07:05.903Z,123
2016-10-04T05:08:06.441Z,123
2016-10-04T05:09:06.902Z,123
2016-10-04T05:10:07.547Z,123
2016-10-04T05:11:07.912Z,123
2016-10-04T05:12:08.414Z,123
2016-10-04T05:13:09.045Z,123
2016-10-04T05:14:09.392Z,123
2016-10-04T05:15:09.916Z,107
2016-10-04T05:16:10.439Z,107
2016-10-04T05:17:11.042Z,107
2016-10-04T05:18:11.543Z,107
2016-10-04T05:19:11.904Z,107
2016-10-04T05:20:12.390Z,107
2016-10-04T05:21:12.917Z,107
2016-10-04T05:22:13.547Z,107
2016-10-04T05:23:13.925Z,107
2016-10-04T05:24:14.541Z,107
2016-10-04T05:25:14.904Z,128
2016-10-04T05:26:15.546Z,128
2016-10-04T05:27:16.065Z,128
2016-10-04T05:28:16.399Z,128
2016-10-04T05:29:17.050Z,128
2016-10-04T05:30:17.438Z,128
2016-10-04T05:31:18.051Z,128
2016-10-04T05:32:18.426Z,128
2016-10-04T05:33:18.931Z,128
2016-10-04T05:34:19.404Z,128
2016-10-04T05:35:20.046Z,154
2016-10-04T05:36:20.553Z,154
2016-10-04T05:37:21.064Z,154
2016-10-04T05:38:21.414Z,154
2016-10-04T05:39:21.938Z,154
2016-10-04T05:40:22.423Z,154
2016-10-04T05:41:23.052Z,154
2016-10-04T05:42:23.420Z,154
2016-10-04T05:43:24.050Z,154
2016-10-04T05:44:24.550Z,154
2016-10-04T05:45:24.907Z,110
2016-10-04T05:46:25.549Z,110
2016-10-04T05:47:25.927Z,110
2016-10-04T05:48:26.558Z,110
2016-10-04T05:49:27.049Z,110
2016-10-04T05:50:27.437Z,110
2016-10-04T05:51:27.900Z,110
2016-10-04T05:52:28.549Z,110
2016-10-04T05:53:29.043Z,110
2016-10-04T05:54:29.545Z,110
2016-10-04T05:55:29.917Z,115
2016-10-04T05:56:30.550Z,115
2016-10-04T05:57:31.036Z,115
2016-10-04T05:58:31.537Z,115
2016-10-04T05:59:31.910Z,115
2016-10-04T06:00:32.538Z,115
2016-10-04T06:01:32.888Z,115
2016-10-04T06:02:33.411Z,115
2016-10-04T06:03:34.037Z,115
2016-10-04T06:04:34.409Z,115
2016-10-04T06:05:35.044Z,97
2016-10-04T06:06:35.554Z,97
2016-10-04T06:07:36.047Z,97
2016-10-04T06:08:36.409Z,97
2016-10-04T06:09:36.932Z,97
2016-10-04T06:10:37.442Z,97
2016-10-04T06:11:37.909Z,97
2016-10-04T06:12:38.443Z,97
2016-10-04T06:13:39.053Z,97
2016-10-04T06:14:39.439Z,97
2016-10-04T06:15:39.923Z,122
2016-10-04T06:16:40.557Z,122
2016-10-04T06:17:41.044Z,122
2016-10-04T06:18:41.549Z,122
2016-10-04T06:19:42.053Z,122
2016-10-04T06:20:42.413Z,122
2016-10-04T06:21:43.047Z,122
2016-10-04T06:22:43.424Z,122
2016-10-04T06:23:44.045Z,122
2016-10-04T06:24:44.402Z,122
2016-10-04T06:25:45.061Z,123
2016-10-04T06:26:45.548Z,123
2016-10-04T06:27:46.068Z,123
2016-10-04T06:28:46.415Z,123
2016-10-04T06:29:47.044Z,123
2016-10-04T06:30:47.415Z,123
2016-10-04T06:31:48.045Z,123
2016-10-04T06:32:48.546Z,123
2016-10-04T06:33:49.066Z,123
2016-10-04T06:34:49.420Z,123
2016-10-04T06:35:49.926Z,126
2016-10-04T06:36:50.402Z,126
2016-10-04T06:37:51.048Z,126
2016-10-04T06:38:51.435Z,126
2016-10-04T06:39:51.913Z,126
2016-10-04T06:40:52.412Z,126
2016-10-04T06:41:53.050Z,126
2016-10-04T06:42:53.546Z,126
2016-10-04T06:43:53.925Z,126
2016-10-04T06:44:54.558Z,160
2016-10-04T06:45:54.936Z,160
2016-10-04T06:46:55.556Z,160
2016-10-04T06:47:55.935Z,160
2016-10-04T06:48:56.446Z,160
2016-10-04T06:49:56.932Z,160
2016-10-04T06:50:57.431Z,160
2016-10-04T06:51:57.930Z,160
2016-10-04T06:52:58.428Z,160
2016-10-04T06:53:58.932Z,160
2016-10-04T06:54:59.557Z,137
2016-10-04T06:55:59.939Z,137
2016-10-04T06:57:00.555Z,137
2016-10-04T06:58:00.910Z,137
2016-10-04T06:59:01.561Z,137
2016-10-04T07:00:02.048Z,137
2016-10-04T07:01:02.401Z,137
2016-10-04T07:02:03.053Z,137
2016-10-04T07:03:03.552Z,137
2016-10-04T07:04:04.052Z,137
2016-10-04T07:05:04.399Z,116
2016-10-04T07:06:05.046Z,116
2016-10-04T07:07:05.413Z,116
2016-10-04T07:08:05.918Z,116
2016-10-04T07:09:06.546Z,116
2016-10-04T07:10:06.905Z,116
2016-10-04T07:11:07.395Z,116
2016-10-04T07:12:08.047Z,116
2016-10-04T07:13:08.401Z,116
2016-10-04T07:14:08.929Z,116
2016-10-04T07:15:09.547Z,132
2016-10-04T07:16:09.928Z,132
2016-10-04T07:17:10.547Z,132
2016-10-04T07:18:10.893Z,132
2016-10-04T07:19:11.406Z,132
2016-10-04T07:20:11.897Z,132
2016-10-04T07:21:12.552Z,132
2016-10-04T07:22:12.905Z,132
2016-10-04T07:23:13.405Z,132
2016-10-04T07:24:13.910Z,132
2016-10-04T07:25:14.403Z,139
2016-10-04T07:26:14.915Z,139
2016-10-04T07:27:15.556Z,139
2016-10-04T07:28:15.924Z,139
2016-10-04T07:29:16.427Z,139
2016-10-04T07:30:17.055Z,139
2016-10-04T07:31:17.405Z,139
2016-10-04T07:32:17.926Z,139
2016-10-04T07:33:18.415Z,139
2016-10-04T07:34:19.053Z,139
2016-10-04T07:35:19.433Z,129
2016-10-04T07:36:20.052Z,129
2016-10-04T07:37:20.429Z,129
2016-10-04T07:38:21.054Z,129
2016-10-04T07:39:21.431Z,129
2016-10-04T07:40:21.935Z,129
2016-10-04T07:41:22.425Z,129
2016-10-04T07:42:22.906Z,129
2016-10-04T07:43:23.404Z,129
2016-10-04T07:44:24.049Z,129
2016-10-04T07:45:24.421Z,159
2016-10-04T07:46:25.048Z,159
2016-10-04T07:47:25.422Z,159
2016-10-04T07:48:25.925Z,159
2016-10-04T07:49:26.411Z,159
2016-10-04T07:50:26.902Z,159
2016-10-04T07:51:27.429Z,159
2016-10-04T07:52:28.047Z,159
2016-10-04T07:53:28.420Z,159
2016-10-04T07:54:28.922Z,159
2016-10-04T07:55:29.420Z,173
2016-10-04T07:56:30.050Z,173
2016-10-04T07:57:30.555Z,173
2016-10-04T07:58:30.932Z,173
2016-10-04T07:59:31.448Z,173
2016-10-04T08:00:31.939Z,173
2016-10-04T08:01:32.446Z,173
2016-10-04T08:02:33.061Z,173
2016-10-04T08:03:33.435Z,173
2016-10-04T08:04:33.912Z,173
2016-10-04T08:05:34.435Z,147
2016-10-04T08:06:34.906Z,147
2016-10-04T08:07:35.557Z,147
2016-10-04T08:08:35.933Z,147
2016-10-04T08:09:36.419Z,147
2016-10-04T08:10:36.906Z,147
2016-10-04T08:11:37.405Z,147
2016-10-04T08:12:38.054Z,147
2016-10-04T08:13:38.408Z,147
2016-10-04T08:14:38.933Z,147
2016-10-04T08:15:39.442Z,141
2016-10-04T08:16:39.913Z,141
2016-10-04T08:17:40.429Z,141
2016-10-04T08:18:40.932Z,141
2016-10-04T08:19:41.432Z,141
2016-10-04T08:20:42.056Z,141
2016-10-04T08:21:42.558Z,141
2016-10-04T08:22:43.062Z,141
2016-10-04T08:23:43.557Z,141
2016-10-04T08:24:44.069Z,141
2016-10-04T08:25:44.554Z,167
2016-10-04T08:26:44.921Z,167
2016-10-04T08:27:45.450Z,167
2016-10-04T08:28:46.074Z,167
2016-10-04T08:29:46.433Z,167
2016-10-04T08:30:47.047Z,167
2016-10-04T08:31:47.438Z,167
2016-10-04T08:32:48.050Z,167
2016-10-04T08:33:48.399Z,167
2016-10-04T08:34:48.947Z,167
2016-10-04T08:35:49.569Z,147
2016-10-04T08:36:49.915Z,147
2016-10-04T08:37:50.427Z,147
2016-10-04T08:38:50.938Z,147
2016-10-04T08:39:51.441Z,147
2016-10-04T08:40:51.940Z,147
2016-10-04T08:41:52.561Z,147
2016-10-04T08:42:53.061Z,147
2016-10-04T08:43:53.562Z,147
2016-10-04T08:44:53.942Z,156
2016-10-04T08:45:54.415Z,156
2016-10-04T08:46:55.057Z,156
2016-10-04T08:47:55.575Z,156
2016-10-04T08:48:56.053Z,156
2016-10-04T08:49:56.435Z,156
2016-10-04T08:50:56.907Z,156
2016-10-04T08:51:57.559Z,156
2016-10-04T08:52:57.926Z,156
2016-10-04T08:53:58.556Z,156
2016-10-04T08:54:58.908Z,138
2016-10-04T08:55:59.432Z,138
2016-10-04T08:57:00.056Z,138
2016-10-04T08:58:00.407Z,138
2016-10-04T08:59:01.060Z,138
2016-10-04T09:00:01.417Z,138
2016-10-04T09:01:02.054Z,138
2016-10-04T09:02:02.554Z,138
2016-10-04T09:03:03.052Z,138
2016-10-04T09:04:03.420Z,138
2016-10-04T09:05:03.922Z,157
2016-10-04T09:06:04.430Z,157
2016-10-04T09:07:04.935Z,157
2016-10-04T09:08:05.404Z,157
2016-10-04T09:09:05.930Z,157
2016-10-04T09:10:06.554Z,157
2016-10-04T09:11:06.913Z,157
2016-10-04T09:12:07.429Z,157
2016-10-04T09:13:08.048Z,157
2016-10-04T09:14:08.419Z,157
2016-10-04T09:15:08.934Z,158
2016-10-04T09:16:09.430Z,158
2016-10-04T09:17:09.941Z,158
2016-10-04T09:18:10.407Z,158
2016-10-04T09:19:10.939Z,158
2016-10-04T09:20:11.443Z,158
2016-10-04T09:21:11.947Z,158
2016-10-04T09:22:12.429Z,158
2016-10-04T09:23:12.931Z,158
2016-10-04T09:24:13.420Z,158
2016-10-04T09:25:13.906Z,156
2016-10-04T09:26:14.431Z,156
2016-10-04T09:27:15.049Z,156
2016-10-04T09:28:15.414Z,156
2016-10-04T09:29:15.923Z,156
2016-10-04T09:30:16.576Z,156
2016-10-04T09:31:16.896Z,156
2016-10-04T09:32:17.547Z,156
2016-10-04T09:33:18.045Z,156
2016-10-04T09:34:18.546Z,156
2016-10-04T09:35:19.040Z,164
2016-10-04T09:36:19.558Z,164
2016-10-04T09:37:19.908Z,164
2016-10-04T09:38:20.418Z,164
2016-10-04T09:39:20.893Z,164
2016-10-04T09:40:21.544Z,164
2016-10-04T09:41:21.905Z,164
2016-10-04T09:42:22.428Z,164
2016-10-04T09:43:23.036Z,164
2016-10-04T09:44:23.409Z,164
2016-10-04T09:45:23.921Z,141
2016-10-04T09:46:24.540Z,141
2016-10-04T09:47:25.037Z,141
2016-10-04T09:48:25.417Z,141
2016-10-04T09:49:25.916Z,141
2016-10-04T09:50:26.413Z,141
2016-10-04T09:51:26.898Z,141
2016-10-04T09:52:27.425Z,141
2016-10-04T09:53:28.048Z,141
2016-10-04T09:54:28.427Z,141
2016-10-04T09:55:29.046Z,156
2016-10-04T09:56:29.550Z,156
2016-10-04T09:57:29.928Z,156
2016-10-04T09:58:30.406Z,156
2016-10-04T09:59:30.936Z,156
2016-10-04T10:00:31.555Z,156
2016-10-04T10:01:31.928Z,156
2016-10-04T10:02:32.444Z,156
2016-10-04T10:03:32.910Z,156
2016-10-04T10:04:33.438Z,156
2016-10-04T10:05:33.906Z,166
2016-10-04T10:06:34.430Z,166
2016-10-04T10:07:34.911Z,166
2016-10-04T10:08:35.419Z,166
2016-10-04T10:09:36.055Z,166
2016-10-04T10:10:36.424Z,166
2016-10-04T10:11:37.049Z,166
2016-10-04T10:12:37.554Z,166
2016-10-04T10:13:38.098Z,166
2016-10-04T10:14:38.557Z,166
2016-10-04T10:15:39.049Z,153
2016-10-04T10:16:39.555Z,153
2016-10-04T10:17:39.907Z,153
2016-10-04T10:18:40.440Z,153
2016-10-04T10:19:40.906Z,153
2016-10-04T10:20:41.411Z,153
2016-10-04T10:21:42.052Z,153
2016-10-04T10:22:42.407Z,153
2016-10-04T10:23:42.933Z,153
2016-10-04T10:24:43.556Z,153
2016-10-04T10:25:44.060Z,153
2016-10-04T10:26:44.446Z,153
2016-10-04T10:27:45.052Z,153
2016-10-04T10:28:45.424Z,153
2016-10-04T10:29:46.057Z,153
2016-10-04T10:30:46.436Z,153
2016-10-04T10:31:47.060Z,153
2016-10-04T10:32:47.565Z,153
2016-10-04T10:33:47.924Z,153
2016-10-04T10:34:48.428Z,153
2016-10-04T10:35:48.909Z,155
2016-10-04T10:36:49.556Z,155
2016-10-04T10:37:50.053Z,155
2016-10-04T10:38:50.433Z,155
2016-10-04T10:39:50.939Z,155
2016-10-04T10:40:51.552Z,155
2016-10-04T10:41:51.924Z,155
2016-10-04T10:42:52.419Z,155
2016-10-04T10:43:52.925Z,155
2016-10-04T10:44:53.550Z,152
2016-10-04T10:45:53.911Z,152
2016-10-04T10:46:54.401Z,152
2016-10-04T10:47:54.951Z,152
2016-10-04T10:48:55.402Z,152
2016-10-04T10:49:55.927Z,152
2016-10-04T10:50:56.546Z,152
2016-10-04T10:51:57.046Z,152
2016-10-04T10:52:57.414Z,152
2016-10-04T10:53:58.044Z,152
2016-10-04T10:54:58.547Z,152
2016-10-04T10:55:58.900Z,152
2016-10-04T10:56:59.544Z,152
2016-10-04T10:58:00.195Z,152
2016-10-04T10:59:00.388Z,152
2016-10-04T11:00:00.916Z,152
2016-10-04T11:01:01.418Z,152
2016-10-04T11:02:01.910Z,152
2016-10-04T11:03:02.529Z,152
2016-10-04T11:04:03.032Z,152
2016-10-04T11:05:03.399Z,165
2016-10-04T11:06:03.883Z,165
2016-10-04T11:07:04.551Z,165
2016-10-04T11:08:04.911Z,165
2016-10-04T11:09:05.396Z,165
2016-10-04T11:10:06.046Z,165
2016-10-04T11:11:06.422Z,165
2016-10-04T11:12:06.917Z,165
2016-10-04T11:13:07.393Z,165
2016-10-04T11:14:08.040Z,165
2016-10-04T11:15:08.539Z,172
2016-10-04T11:16:08.892Z,172
2016-10-04T11:17:09.383Z,172
2016-10-04T11:18:09.912Z,172
2016-10-04T11:19:10.642Z,172
2016-10-04T11:20:10.888Z,172
2016-10-04T11:21:11.429Z,172
2016-10-04T11:22:12.045Z,172
2016-10-04T11:23:12.535Z,172
2016-10-04T11:24:13.032Z,172
2016-10-04T11:25:13.428Z,143
2016-10-04T11:26:14.039Z,143
2016-10-04T11:27:14.406Z,143
2016-10-04T11:28:14.912Z,143
2016-10-04T11:29:15.531Z,143
2016-10-04T11:30:15.914Z,143
2016-10-04T11:31:16.383Z,143
2016-10-04T11:32:16.918Z,143
2016-10-04T11:33:17.404Z,143
2016-10-04T11:34:17.897Z,143
2016-10-04T11:35:18.378Z,141
2016-10-04T11:36:19.028Z,141
2016-10-04T11:37:19.412Z,141
2016-10-04T11:38:19.875Z,141
2016-10-04T11:39:20.379Z,141
2016-10-04T11:40:20.912Z,141
2016-10-04T11:41:21.421Z,141
2016-10-04T11:42:22.041Z,141
2016-10-04T11:43:22.532Z,141
2016-10-04T11:44:22.901Z,141
2016-10-04T11:45:23.538Z,149
2016-10-04T11:46:23.905Z,149
2016-10-04T11:47:24.547Z,149
2016-10-04T11:48:24.910Z,149
2016-10-04T11:49:25.424Z,149
2016-10-04T11:50:25.916Z,149
2016-10-04T11:51:26.531Z,149
2016-10-04T11:52:27.026Z,149
2016-10-04T11:53:27.385Z,149
2016-10-04T11:54:27.882Z,149
2016-10-04T11:55:28.375Z,154
2016-10-04T11:56:29.028Z,154
2016-10-04T11:57:29.537Z,154
2016-10-04T11:58:30.021Z,154
2016-10-04T11:59:30.523Z,154
2016-10-04T12:00:31.020Z,154
2016-10-04T12:01:31.410Z,154
2016-10-04T12:02:31.913Z,154
2016-10-04T12:03:32.372Z,154
2016-10-04T12:04:33.017Z,154
2016-10-04T12:05:33.399Z,160
2016-10-04T12:06:33.886Z,160
2016-10-04T12:07:34.390Z,160
2016-10-04T12:08:34.866Z,160
2016-10-04T12:09:35.395Z,160
2016-10-04T12:10:36.015Z,160
2016-10-04T12:11:36.375Z,160
2016-10-04T12:12:37.013Z,160
2016-10-04T12:13:37.406Z,160
2016-10-04T12:14:37.889Z,160
2016-10-04T12:15:38.516Z,153
2016-10-04T12:16:38.879Z,153
2016-10-04T12:17:39.509Z,153
2016-10-04T12:18:39.999Z,153
2016-10-04T12:19:40.401Z,153
2016-10-04T12:20:40.892Z,153
2016-10-04T12:21:41.510Z,153
2016-10-04T12:22:41.881Z,153
2016-10-04T12:23:42.516Z,153
2016-10-04T12:24:43.036Z,153
2016-10-04T12:25:43.409Z,149
2016-10-04T12:26:44.016Z,149
2016-10-04T12:27:44.525Z,149
2016-10-04T12:28:45.013Z,149
2016-10-04T12:29:45.406Z,149
2016-10-04T12:30:45.887Z,149
2016-10-04T12:31:46.513Z,149
2016-10-04T12:32:47.013Z,149
2016-10-04T12:33:47.402Z,149
2016-10-04T12:34:47.894Z,149
2016-10-04T12:35:48.383Z,153
2016-10-04T12:36:48.886Z,153
2016-10-04T12:37:49.383Z,153
2016-10-04T12:38:49.879Z,153
2016-10-04T12:39:50.378Z,153
2016-10-04T12:40:50.859Z,153
2016-10-04T12:41:51.512Z,153
2016-10-04T12:42:52.003Z,153
2016-10-04T12:43:52.402Z,153
2016-10-04T12:44:53.024Z,153
2016-10-04T12:45:53.374Z,138
2016-10-04T12:46:53.896Z,138
2016-10-04T12:47:54.396Z,138
2016-10-04T12:48:54.885Z,138
2016-10-04T12:49:55.504Z,138
2016-10-04T12:50:55.883Z,138
2016-10-04T12:51:56.368Z,138
2016-10-04T12:52:56.852Z,138
2016-10-04T12:53:57.506Z,138
2016-10-04T12:54:57.850Z,146
2016-10-04T12:55:58.503Z,146
2016-10-04T12:56:58.883Z,146
2016-10-04T12:57:59.371Z,146
2016-10-04T12:59:00.000Z,146
2016-10-04T13:00:00.402Z,146
2016-10-04T13:01:00.859Z,146
2016-10-04T13:02:01.517Z,146
2016-10-04T13:03:01.893Z,146
2016-10-04T13:04:02.366Z,146
2016-10-04T13:05:03.014Z,123
2016-10-04T13:06:03.513Z,123
2016-10-04T13:07:04.016Z,123
2016-10-04T13:08:04.392Z,123
2016-10-04T13:09:04.917Z,123
2016-10-04T13:10:05.515Z,123
2016-10-04T13:11:05.874Z,123
2016-10-04T13:12:06.411Z,123
2016-10-04T13:13:07.012Z,123
2016-10-04T13:14:07.366Z,123
2016-10-04T13:15:07.867Z,130
2016-10-04T13:16:08.385Z,130
2016-10-04T13:17:08.855Z,130
2016-10-04T13:18:09.382Z,130
2016-10-04T13:19:09.868Z,130
2016-10-04T13:20:10.351Z,130
2016-10-04T13:21:10.884Z,130
2016-10-04T13:22:11.379Z,130
2016-10-04T13:23:11.998Z,130
2016-10-04T13:24:12.352Z,130
2016-10-04T13:25:12.880Z,132
2016-10-04T13:26:13.392Z,132
2016-10-04T13:27:13.887Z,132
2016-10-04T13:28:14.504Z,132
2016-10-04T13:29:14.850Z,132
2016-10-04T13:30:15.498Z,132
2016-10-04T13:31:15.874Z,132
2016-10-04T13:32:16.389Z,132
2016-10-04T13:33:17.015Z,132
2016-10-04T13:34:17.346Z,132
2016-10-04T13:35:17.869Z,139
2016-10-04T13:36:18.341Z,139
2016-10-04T13:37:18.861Z,139
2016-10-04T13:38:19.524Z,139
2016-10-04T13:39:19.853Z,139
2016-10-04T13:40:20.501Z,139
2016-10-04T13:41:20.858Z,139
2016-10-04T13:42:21.390Z,139
2016-10-04T13:43:21.862Z,139
2016-10-04T13:44:22.508Z,139
2016-10-04T13:45:22.879Z,150
2016-10-04T13:46:23.379Z,150
2016-10-04T13:47:23.873Z,150
2016-10-04T13:48:24.356Z,150
2016-10-04T13:49:24.883Z,150
2016-10-04T13:50:25.390Z,150
2016-10-04T13:51:25.999Z,150
2016-10-04T13:52:26.502Z,150
2016-10-04T13:53:26.851Z,150
2016-10-04T13:54:27.357Z,150